ACA490 CYYZ-CYUL
Flight info
| Callsign | ACA490 |
|---|---|
| Flight time | 0h 54m |
| Altitude | 37000 |
| Route | DEDKI5 MIGLO HABBS7 |
| Aircraft | A333/H-SDE3GHIJ2J3J5M1RVWXY/LB2D1 |
Departure
| Time | 2026-05-03 23:01 |
|---|---|
| Airport | Toronto Pearson International Airport (CYYZ) |
Arrival
| Time | 2026-05-03 23:55 |
|---|---|
| Airport | Montreal / Pierre Elliott Trudeau International Airport (CYUL) |
| Time | Latitude | Longitude | Altitude | Speed | Heading |
|---|---|---|---|---|---|
| 2026-05-03 22:16 | 43.67882 | -79.61746 | 569 ft | 0 kts | 45° |
| 2026-05-03 22:16 | 43.67882 | -79.61747 | 569 ft | 0 kts | 45° |
| 2026-05-03 22:31 | 43.67881 | -79.61747 | 565 ft | 0 kts | 45° |
| 2026-05-03 22:44 | 43.67866 | -79.61767 | 575 ft | 4 kts | 33° |
| 2026-05-03 22:44 | 43.67842 | -79.61783 | 574 ft | 4 kts | 9° |
| 2026-05-03 22:44 | 43.67816 | -79.61782 | 573 ft | 4 kts | 342° |
| 2026-05-03 22:44 | 43.67792 | -79.61766 | 575 ft | 4 kts | 322° |
| 2026-05-03 22:45 | 43.67778 | -79.61749 | 575 ft | 0 kts | 316° |
| 2026-05-03 22:51 | 43.67784 | -79.61757 | 575 ft | 4 kts | 316° |
| 2026-05-03 22:51 | 43.67814 | -79.61797 | 571 ft | 8 kts | 316° |
| 2026-05-03 22:52 | 43.67844 | -79.61837 | 575 ft | 10 kts | 317° |
| 2026-05-03 22:52 | 43.67904 | -79.61893 | 572 ft | 11 kts | 332° |
| 2026-05-03 22:52 | 43.67976 | -79.61955 | 568 ft | 11 kts | 302° |
| 2026-05-03 22:52 | 43.67964 | -79.62058 | 570 ft | 11 kts | 268° |
| 2026-05-03 22:53 | 43.68003 | -79.62142 | 573 ft | 11 kts | 314° |
| 2026-05-03 22:53 | 43.68062 | -79.62222 | 575 ft | 13 kts | 316° |
| 2026-05-03 22:53 | 43.68132 | -79.62311 | 575 ft | 14 kts | 317° |
| 2026-05-03 22:53 | 43.68210 | -79.62409 | 571 ft | 16 kts | 317° |
| 2026-05-03 22:54 | 43.68296 | -79.62511 | 569 ft | 17 kts | 319° |
| 2026-05-03 22:54 | 43.68387 | -79.62630 | 575 ft | 19 kts | 316° |
| 2026-05-03 22:54 | 43.68488 | -79.62763 | 569 ft | 21 kts | 316° |
| 2026-05-03 22:54 | 43.68591 | -79.62897 | 570 ft | 19 kts | 317° |
| 2026-05-03 22:55 | 43.68690 | -79.63024 | 570 ft | 20 kts | 317° |
| 2026-05-03 22:55 | 43.68793 | -79.63158 | 570 ft | 21 kts | 316° |
| 2026-05-03 22:55 | 43.68897 | -79.63299 | 572 ft | 21 kts | 315° |
| 2026-05-03 22:55 | 43.68972 | -79.63395 | 572 ft | 12 kts | 317° |
| 2026-05-03 22:56 | 43.69037 | -79.63479 | 575 ft | 14 kts | 317° |
| 2026-05-03 22:56 | 43.69098 | -79.63525 | 574 ft | 10 kts | 358° |
| 2026-05-03 22:56 | 43.69155 | -79.63478 | 574 ft | 11 kts | 43° |
| 2026-05-03 22:56 | 43.69226 | -79.63426 | 576 ft | 13 kts | 11° |
| 2026-05-03 22:57 | 43.69303 | -79.63422 | 571 ft | 0 kts | 1° |
| 2026-05-03 22:59 | 43.69318 | -79.63422 | 571 ft | 7 kts | 359° |
| 2026-05-03 22:59 | 43.69378 | -79.63455 | 569 ft | 11 kts | 325° |
| 2026-05-03 22:59 | 43.69398 | -79.63520 | 572 ft | 6 kts | 250° |
| 2026-05-03 22:59 | 43.69387 | -79.63541 | 569 ft | 1 kts | 231° |
| 2026-05-03 23:00 | 43.69365 | -79.63574 | 573 ft | 14 kts | 226° |
| 2026-05-03 23:00 | 43.69144 | -79.63900 | 578 ft | 80 kts | 227° |
| 2026-05-03 23:00 | 43.68608 | -79.64678 | 575 ft | 141 kts | 226° |
| 2026-05-03 23:00 | 43.67828 | -79.65817 | 802 ft | 181 kts | 229° |
| 2026-05-03 23:01 | 43.66941 | -79.67151 | 1412 ft | 195 kts | 229° |
| 2026-05-03 23:01 | 43.66016 | -79.68580 | 2292 ft | 203 kts | 232° |
| 2026-05-03 23:01 | 43.65123 | -79.70150 | 2957 ft | 214 kts | 237° |
| 2026-05-03 23:01 | 43.64217 | -79.71861 | 3632 ft | 228 kts | 237° |
| 2026-05-03 23:02 | 43.63228 | -79.73656 | 4414 ft | 237 kts | 239° |
| 2026-05-03 23:02 | 43.62274 | -79.75486 | 5256 ft | 235 kts | 241° |
| 2026-05-03 23:02 | 43.61341 | -79.77389 | 6149 ft | 243 kts | 243° |
| 2026-05-03 23:02 | 43.60421 | -79.79386 | 7028 ft | 251 kts | 242° |
| 2026-05-03 23:03 | 43.59229 | -79.81200 | 8115 ft | 260 kts | 227° |
| 2026-05-03 23:03 | 43.57637 | -79.82472 | 9246 ft | 273 kts | 210° |
| 2026-05-03 23:03 | 43.55721 | -79.82914 | 10331 ft | 291 kts | 186° |
| 2026-05-03 23:03 | 43.53714 | -79.82118 | 10996 ft | 323 kts | 154° |
| 2026-05-03 23:04 | 43.52100 | -79.79849 | 11653 ft | 345 kts | 120° |
| 2026-05-03 23:04 | 43.51500 | -79.76644 | 12339 ft | 351 kts | 87° |
| 2026-05-03 23:04 | 43.51470 | -79.73193 | 12808 ft | 370 kts | 91° |
| 2026-05-03 23:04 | 43.51226 | -79.69606 | 13451 ft | 381 kts | 94° |
| 2026-05-03 23:05 | 43.50913 | -79.65957 | 14241 ft | 385 kts | 94° |
| 2026-05-03 23:05 | 43.50579 | -79.62274 | 15024 ft | 389 kts | 95° |
| 2026-05-03 23:05 | 43.50455 | -79.58542 | 15794 ft | 389 kts | 81° |
| 2026-05-03 23:05 | 43.50951 | -79.54888 | 16560 ft | 390 kts | 72° |
| 2026-05-03 23:06 | 43.51633 | -79.51298 | 17312 ft | 393 kts | 71° |
| 2026-05-03 23:06 | 43.52353 | -79.47648 | 18071 ft | 397 kts | 72° |
| 2026-05-03 23:06 | 43.53081 | -79.43945 | 18728 ft | 401 kts | 71° |
| 2026-05-03 23:06 | 43.53876 | -79.40233 | 19382 ft | 405 kts | 69° |
| 2026-05-03 23:07 | 43.54716 | -79.36509 | 20004 ft | 409 kts | 69° |
| 2026-05-03 23:07 | 43.55559 | -79.32781 | 20637 ft | 413 kts | 69° |
| 2026-05-03 23:07 | 43.56414 | -79.28987 | 21284 ft | 416 kts | 69° |
| 2026-05-03 23:07 | 43.57273 | -79.25159 | 21927 ft | 419 kts | 69° |
| 2026-05-03 23:08 | 43.58136 | -79.21299 | 22529 ft | 423 kts | 69° |
| 2026-05-03 23:08 | 43.59003 | -79.17409 | 23158 ft | 426 kts | 69° |
| 2026-05-03 23:08 | 43.59876 | -79.13487 | 23686 ft | 429 kts | 69° |
| 2026-05-03 23:08 | 43.60755 | -79.09524 | 24181 ft | 432 kts | 69° |
| 2026-05-03 23:09 | 43.61637 | -79.05541 | 24671 ft | 435 kts | 69° |
| 2026-05-03 23:09 | 43.62512 | -79.01581 | 25177 ft | 438 kts | 69° |
| 2026-05-03 23:09 | 43.63402 | -78.97548 | 25664 ft | 440 kts | 69° |
| 2026-05-03 23:09 | 43.64296 | -78.93490 | 26131 ft | 443 kts | 69° |
| 2026-05-03 23:10 | 43.65194 | -78.89405 | 26612 ft | 446 kts | 70° |
| 2026-05-03 23:10 | 43.66097 | -78.85290 | 27064 ft | 449 kts | 70° |
| 2026-05-03 23:10 | 43.67004 | -78.81145 | 27512 ft | 452 kts | 70° |
| 2026-05-03 23:10 | 43.67915 | -78.76978 | 27965 ft | 455 kts | 70° |
| 2026-05-03 23:11 | 43.68853 | -78.72794 | 28416 ft | 457 kts | 67° |
| 2026-05-03 23:11 | 43.70003 | -78.68699 | 28878 ft | 458 kts | 64° |
| 2026-05-03 23:11 | 43.71244 | -78.64632 | 29350 ft | 460 kts | 63° |
| 2026-05-03 23:11 | 43.72503 | -78.60557 | 29780 ft | 463 kts | 63° |
| 2026-05-03 23:12 | 43.73771 | -78.56449 | 30151 ft | 466 kts | 63° |
| 2026-05-03 23:12 | 43.75028 | -78.52365 | 30493 ft | 469 kts | 64° |
| 2026-05-03 23:12 | 43.76305 | -78.48203 | 30824 ft | 472 kts | 64° |
| 2026-05-03 23:12 | 43.77591 | -78.44005 | 31170 ft | 475 kts | 64° |
| 2026-05-03 23:13 | 43.78880 | -78.39788 | 31497 ft | 478 kts | 64° |
| 2026-05-03 23:13 | 43.80179 | -78.35530 | 31829 ft | 481 kts | 64° |
| 2026-05-03 23:13 | 43.81482 | -78.31252 | 32223 ft | 482 kts | 64° |
| 2026-05-03 23:13 | 43.82780 | -78.26979 | 32710 ft | 482 kts | 64° |
| 2026-05-03 23:14 | 43.84079 | -78.22697 | 33175 ft | 482 kts | 64° |
| 2026-05-03 23:14 | 43.85378 | -78.18410 | 33615 ft | 482 kts | 64° |
| 2026-05-03 23:14 | 43.86671 | -78.14133 | 34007 ft | 482 kts | 64° |
| 2026-05-03 23:14 | 43.87967 | -78.09841 | 34340 ft | 482 kts | 64° |
| 2026-05-03 23:15 | 43.89261 | -78.05548 | 34666 ft | 483 kts | 64° |
| 2026-05-03 23:15 | 43.90540 | -78.01301 | 34981 ft | 483 kts | 64° |
| 2026-05-03 23:15 | 43.91833 | -77.96996 | 35280 ft | 484 kts | 65° |
| 2026-05-03 23:15 | 43.93127 | -77.92681 | 35586 ft | 485 kts | 65° |
| 2026-05-03 23:16 | 43.94423 | -77.88355 | 35864 ft | 486 kts | 65° |
| 2026-05-03 23:16 | 43.95723 | -77.84007 | 36163 ft | 487 kts | 65° |
| 2026-05-03 23:16 | 43.97019 | -77.79663 | 36464 ft | 488 kts | 65° |
| 2026-05-03 23:16 | 43.98314 | -77.75316 | 36759 ft | 488 kts | 65° |
| 2026-05-03 23:17 | 43.99615 | -77.70941 | 36857 ft | 489 kts | 65° |
| 2026-05-03 23:17 | 44.02201 | -77.62221 | 36857 ft | 486 kts | 65° |
| 2026-05-03 23:18 | 44.04769 | -77.53536 | 36861 ft | 486 kts | 65° |
| 2026-05-03 23:18 | 44.07329 | -77.44898 | 36858 ft | 485 kts | 63° |
| 2026-05-03 23:19 | 44.10724 | -77.36865 | 36861 ft | 481 kts | 54° |
| 2026-05-03 23:19 | 44.14381 | -77.29043 | 36861 ft | 482 kts | 54° |
| 2026-05-03 23:20 | 44.18023 | -77.21213 | 36865 ft | 482 kts | 54° |
| 2026-05-03 23:20 | 44.21654 | -77.13368 | 36866 ft | 482 kts | 54° |
| 2026-05-03 23:21 | 44.25279 | -77.05506 | 36869 ft | 482 kts | 54° |
| 2026-05-03 23:21 | 44.28900 | -76.97631 | 36862 ft | 481 kts | 55° |
| 2026-05-03 23:22 | 44.34292 | -76.85862 | 36865 ft | 481 kts | 55° |
| 2026-05-03 23:22 | 44.37895 | -76.77972 | 36862 ft | 481 kts | 55° |
| 2026-05-03 23:23 | 44.40886 | -76.71405 | 36858 ft | 481 kts | 55° |
| 2026-05-03 23:23 | 44.44851 | -76.62677 | 36856 ft | 481 kts | 55° |
| 2026-05-03 23:24 | 44.46623 | -76.58766 | 36853 ft | 481 kts | 55° |
| 2026-05-03 23:24 | 44.49241 | -76.52982 | 36855 ft | 481 kts | 55° |
| 2026-05-03 23:25 | 44.52804 | -76.45090 | 36853 ft | 481 kts | 55° |
| 2026-05-03 23:25 | 44.56371 | -76.37165 | 36854 ft | 481 kts | 55° |
| 2026-05-03 23:26 | 44.59936 | -76.29224 | 36844 ft | 481 kts | 56° |
| 2026-05-03 23:26 | 44.63426 | -76.21191 | 36840 ft | 483 kts | 61° |
| 2026-05-03 23:27 | 44.66134 | -76.12535 | 36840 ft | 484 kts | 66° |
| 2026-05-03 23:27 | 44.68682 | -76.03848 | 36834 ft | 484 kts | 66° |
| 2026-05-03 23:28 | 44.71193 | -75.95053 | 36854 ft | 484 kts | 68° |
| 2026-05-03 23:28 | 44.73561 | -75.86181 | 36806 ft | 485 kts | 68° |
| 2026-05-03 23:29 | 44.74755 | -75.81691 | 36392 ft | 491 kts | 68° |
| 2026-05-03 23:29 | 44.75957 | -75.77167 | 35559 ft | 497 kts | 68° |
| 2026-05-03 23:29 | 44.77176 | -75.72576 | 34682 ft | 504 kts | 67° |
| 2026-05-03 23:29 | 44.78404 | -75.67942 | 33931 ft | 507 kts | 67° |
| 2026-05-03 23:30 | 44.79615 | -75.63366 | 33132 ft | 507 kts | 67° |
| 2026-05-03 23:30 | 44.80847 | -75.58699 | 32345 ft | 506 kts | 67° |
| 2026-05-03 23:30 | 44.82073 | -75.54049 | 31580 ft | 505 kts | 66° |
| 2026-05-03 23:30 | 44.83287 | -75.49431 | 30996 ft | 499 kts | 66° |
| 2026-05-03 23:31 | 44.84516 | -75.44883 | 30435 ft | 493 kts | 65° |
| 2026-05-03 23:31 | 44.85775 | -75.40419 | 29885 ft | 487 kts | 65° |
| 2026-05-03 23:31 | 44.87026 | -75.36011 | 29261 ft | 481 kts | 65° |
| 2026-05-03 23:31 | 44.88246 | -75.31708 | 28566 ft | 477 kts | 65° |
| 2026-05-03 23:32 | 44.89471 | -75.27374 | 27910 ft | 472 kts | 64° |
| 2026-05-03 23:32 | 44.90679 | -75.23087 | 27240 ft | 468 kts | 64° |
| 2026-05-03 23:32 | 44.91873 | -75.18841 | 26595 ft | 464 kts | 64° |
| 2026-05-03 23:32 | 44.93057 | -75.14625 | 25968 ft | 460 kts | 64° |
| 2026-05-03 23:33 | 44.94228 | -75.10446 | 25343 ft | 456 kts | 64° |
| 2026-05-03 23:33 | 44.95390 | -75.06288 | 24717 ft | 453 kts | 64° |
| 2026-05-03 23:33 | 44.96539 | -75.02174 | 24149 ft | 448 kts | 64° |
| 2026-05-03 23:33 | 44.97652 | -74.98176 | 23912 ft | 437 kts | 64° |
| 2026-05-03 23:34 | 44.98857 | -74.94335 | 23832 ft | 418 kts | 58° |
| 2026-05-03 23:34 | 45.00228 | -74.90733 | 23193 ft | 416 kts | 56° |
| 2026-05-03 23:34 | 45.01666 | -74.87146 | 22118 ft | 423 kts | 56° |
| 2026-05-03 23:34 | 45.03129 | -74.83513 | 21320 ft | 425 kts | 56° |
| 2026-05-03 23:35 | 45.04579 | -74.79889 | 20621 ft | 422 kts | 56° |
| 2026-05-03 23:35 | 45.06012 | -74.76294 | 20002 ft | 418 kts | 56° |
| 2026-05-03 23:35 | 45.07432 | -74.72722 | 19376 ft | 414 kts | 56° |
| 2026-05-03 23:35 | 45.08833 | -74.69190 | 18830 ft | 410 kts | 56° |
| 2026-05-03 23:36 | 45.10220 | -74.65687 | 18303 ft | 405 kts | 56° |
| 2026-05-03 23:36 | 45.11574 | -74.62282 | 17740 ft | 399 kts | 55° |
| 2026-05-03 23:36 | 45.12992 | -74.58951 | 17310 ft | 390 kts | 53° |
| 2026-05-03 23:36 | 45.14402 | -74.55725 | 16888 ft | 381 kts | 53° |
| 2026-05-03 23:37 | 45.15789 | -74.52565 | 16381 ft | 376 kts | 53° |
| 2026-05-03 23:37 | 45.17157 | -74.49442 | 16047 ft | 369 kts | 53° |
| 2026-05-03 23:37 | 45.18511 | -74.46349 | 15482 ft | 371 kts | 53° |
| 2026-05-03 23:37 | 45.19872 | -74.43235 | 14866 ft | 370 kts | 53° |
| 2026-05-03 23:38 | 45.21214 | -74.40149 | 14392 ft | 365 kts | 54° |
| 2026-05-03 23:38 | 45.22534 | -74.37098 | 13912 ft | 360 kts | 54° |
| 2026-05-03 23:38 | 45.23837 | -74.34084 | 13407 ft | 356 kts | 54° |
| 2026-05-03 23:38 | 45.25123 | -74.31105 | 12885 ft | 352 kts | 54° |
| 2026-05-03 23:39 | 45.26393 | -74.28163 | 12431 ft | 348 kts | 54° |
| 2026-05-03 23:39 | 45.27652 | -74.25242 | 11992 ft | 344 kts | 54° |
| 2026-05-03 23:39 | 45.28885 | -74.22379 | 11547 ft | 342 kts | 54° |
| 2026-05-03 23:39 | 45.30119 | -74.19511 | 11051 ft | 339 kts | 54° |
| 2026-05-03 23:40 | 45.31346 | -74.16655 | 10737 ft | 332 kts | 54° |
| 2026-05-03 23:40 | 45.32519 | -74.13914 | 10645 ft | 317 kts | 54° |
| 2026-05-03 23:40 | 45.33639 | -74.11296 | 10536 ft | 303 kts | 54° |
| 2026-05-03 23:40 | 45.34715 | -74.08781 | 10416 ft | 294 kts | 54° |
| 2026-05-03 23:41 | 45.35804 | -74.06334 | 10069 ft | 292 kts | 49° |
| 2026-05-03 23:41 | 45.37154 | -74.04206 | 9707 ft | 288 kts | 39° |
| 2026-05-03 23:41 | 45.38621 | -74.02266 | 9350 ft | 287 kts | 37° |
| 2026-05-03 23:41 | 45.39601 | -74.01003 | 9113 ft | 286 kts | 37° |
| 2026-05-03 23:42 | 45.41076 | -73.99106 | 8772 ft | 285 kts | 37° |
| 2026-05-03 23:42 | 45.42541 | -73.97214 | 8442 ft | 284 kts | 37° |
| 2026-05-03 23:42 | 45.44000 | -73.95324 | 8109 ft | 283 kts | 38° |
| 2026-05-03 23:42 | 45.45924 | -73.92825 | 7648 ft | 282 kts | 39° |
| 2026-05-03 23:43 | 45.47303 | -73.91029 | 7321 ft | 281 kts | 39° |
| 2026-05-03 23:43 | 45.48741 | -73.89154 | 6964 ft | 281 kts | 39° |
| 2026-05-03 23:43 | 45.49705 | -73.87896 | 6749 ft | 280 kts | 39° |
| 2026-05-03 23:43 | 45.51139 | -73.86022 | 6415 ft | 279 kts | 39° |
| 2026-05-03 23:44 | 45.52529 | -73.84206 | 6072 ft | 278 kts | 39° |
| 2026-05-03 23:44 | 45.53953 | -73.82342 | 5716 ft | 276 kts | 39° |
| 2026-05-03 23:44 | 45.55327 | -73.80543 | 5393 ft | 275 kts | 39° |
| 2026-05-03 23:44 | 45.56712 | -73.78726 | 5232 ft | 265 kts | 39° |
| 2026-05-03 23:45 | 45.58015 | -73.77015 | 5164 ft | 253 kts | 39° |
| 2026-05-03 23:45 | 45.59283 | -73.75348 | 5054 ft | 243 kts | 39° |
| 2026-05-03 23:45 | 45.60508 | -73.73739 | 4957 ft | 235 kts | 38° |
| 2026-05-03 23:45 | 45.61706 | -73.72169 | 4689 ft | 234 kts | 39° |
| 2026-05-03 23:46 | 45.62904 | -73.70598 | 4406 ft | 234 kts | 38° |
| 2026-05-03 23:46 | 45.64106 | -73.69019 | 4129 ft | 233 kts | 39° |
| 2026-05-03 23:46 | 45.65294 | -73.67458 | 4002 ft | 230 kts | 39° |
| 2026-05-03 23:46 | 45.66471 | -73.65910 | 3983 ft | 230 kts | 39° |
| 2026-05-03 23:47 | 45.67647 | -73.64361 | 3992 ft | 230 kts | 39° |
| 2026-05-03 23:47 | 45.68825 | -73.62809 | 3991 ft | 230 kts | 39° |
| 2026-05-03 23:47 | 45.69989 | -73.61274 | 3843 ft | 230 kts | 39° |
| 2026-05-03 23:47 | 45.71033 | -73.59410 | 3593 ft | 254 kts | 59° |
| 2026-05-03 23:48 | 45.71427 | -73.56936 | 3301 ft | 257 kts | 94° |
| 2026-05-03 23:48 | 45.70772 | -73.54657 | 3075 ft | 243 kts | 134° |
| 2026-05-03 23:48 | 45.69416 | -73.53456 | 2988 ft | 220 kts | 166° |
| 2026-05-03 23:48 | 45.67979 | -73.53196 | 2979 ft | 198 kts | 186° |
| 2026-05-03 23:49 | 45.66671 | -73.53354 | 2981 ft | 188 kts | 192° |
| 2026-05-03 23:49 | 45.65380 | -73.53588 | 2983 ft | 186 kts | 193° |
| 2026-05-03 23:49 | 45.64138 | -73.53959 | 2994 ft | 183 kts | 201° |
| 2026-05-03 23:49 | 45.62973 | -73.54649 | 2992 ft | 180 kts | 213° |
| 2026-05-03 23:50 | 45.61964 | -73.55678 | 2989 ft | 178 kts | 225° |
| 2026-05-03 23:50 | 45.61054 | -73.56873 | 2986 ft | 178 kts | 227° |
| 2026-05-03 23:50 | 45.60150 | -73.58076 | 2988 ft | 177 kts | 227° |
| 2026-05-03 23:50 | 45.59243 | -73.59270 | 2986 ft | 177 kts | 226° |
| 2026-05-03 23:51 | 45.58330 | -73.60453 | 2873 ft | 176 kts | 226° |
| 2026-05-03 23:51 | 45.57462 | -73.61578 | 2649 ft | 160 kts | 226° |
| 2026-05-03 23:51 | 45.56679 | -73.62611 | 2411 ft | 146 kts | 227° |
| 2026-05-03 23:51 | 45.55966 | -73.63552 | 2209 ft | 134 kts | 227° |
| 2026-05-03 23:52 | 45.55297 | -73.64433 | 2041 ft | 128 kts | 227° |
| 2026-05-03 23:52 | 45.54641 | -73.65299 | 1863 ft | 129 kts | 226° |
| 2026-05-03 23:52 | 45.53985 | -73.66163 | 1689 ft | 128 kts | 227° |
| 2026-05-03 23:52 | 45.53340 | -73.67012 | 1512 ft | 128 kts | 227° |
| 2026-05-03 23:53 | 45.52692 | -73.67871 | 1344 ft | 127 kts | 227° |
| 2026-05-03 23:53 | 45.52034 | -73.68722 | 1174 ft | 128 kts | 226° |
| 2026-05-03 23:53 | 45.51374 | -73.69576 | 960 ft | 128 kts | 226° |
| 2026-05-03 23:53 | 45.50735 | -73.70459 | 813 ft | 128 kts | 226° |
| 2026-05-03 23:54 | 45.50067 | -73.71312 | 652 ft | 129 kts | 225° |
| 2026-05-03 23:54 | 45.49406 | -73.72156 | 463 ft | 128 kts | 228° |
| 2026-05-03 23:54 | 45.48757 | -73.73025 | 289 ft | 129 kts | 226° |
| 2026-05-03 23:54 | 45.48107 | -73.73871 | 149 ft | 122 kts | 228° |
| 2026-05-03 23:55 | 45.47559 | -73.74606 | 116 ft | 85 kts | 222° |
| 2026-05-03 23:55 | 45.47271 | -73.74980 | 119 ft | 29 kts | 223° |
| 2026-05-03 23:55 | 45.47124 | -73.75171 | 117 ft | 29 kts | 223° |
| 2026-05-03 23:55 | 45.46973 | -73.75369 | 117 ft | 30 kts | 223° |
| 2026-05-03 23:56 | 45.46804 | -73.75549 | 117 ft | 30 kts | 207° |
| 2026-05-03 23:56 | 45.46609 | -73.75627 | 118 ft | 25 kts | 193° |
| 2026-05-03 23:56 | 45.46495 | -73.75664 | 118 ft | 13 kts | 192° |
| 2026-05-03 23:56 | 45.46395 | -73.75696 | 116 ft | 17 kts | 193° |
| 2026-05-03 23:57 | 45.46269 | -73.75727 | 115 ft | 20 kts | 180° |
| 2026-05-03 23:57 | 45.46139 | -73.75675 | 117 ft | 17 kts | 119° |
| 2026-05-03 23:57 | 45.46132 | -73.75486 | 117 ft | 21 kts | 86° |
| 2026-05-03 23:57 | 45.46142 | -73.75254 | 115 ft | 25 kts | 86° |
| 2026-05-03 23:58 | 45.46151 | -73.74984 | 120 ft | 29 kts | 88° |
| 2026-05-03 23:58 | 45.46156 | -73.74782 | 116 ft | 18 kts | 88° |
| 2026-05-03 23:58 | 45.46150 | -73.74600 | 116 ft | 11 kts | 112° |
| 2026-05-03 23:58 | 45.46080 | -73.74520 | 118 ft | 15 kts | 167° |
| 2026-05-03 23:59 | 45.45994 | -73.74449 | 116 ft | 11 kts | 94° |
| 2026-05-03 23:59 | 45.46004 | -73.74380 | 120 ft | 2 kts | 112° |
| 2026-05-03 23:59 | 45.45996 | -73.74377 | 115 ft | 1 kts | 164° |
| 2026-05-03 23:59 | 45.45986 | -73.74382 | 115 ft | 3 kts | 197° |
| 2026-05-04 00:00 | 45.45959 | -73.74396 | 120 ft | 5 kts | 199° |
| 2026-05-04 00:00 | 45.45932 | -73.74411 | 117 ft | 1 kts | 202° |
| 2026-05-04 00:01 | 45.45930 | -73.74412 | 117 ft | 2 kts | 202° |
| 2026-05-04 00:01 | 45.45905 | -73.74427 | 117 ft | 0 kts | 202° |
| 2026-05-04 00:04 | 45.45902 | -73.74443 | 116 ft | 0 kts | 178° |